National Weather Service Raw Text Product

Displaying AFOS PIL: TAFOTM Received: 2017-11-15 05:20 UTC


019 
FTUS43 KDMX 150520
TAFOTM
TAF
KOTM 150520Z 1506/1606 18008KT 2SM -RADZ BR OVC003
     FM150900 22008KT 3SM -RADZ BR OVC006
     FM151100 27010KT P6SM SCT006 OVC011
     FM151600 29012KT P6SM SCT014
     FM151900 31016G24KT P6SM SKC
     FM160100 32010KT P6SM FEW250=